createdAt,value
2017-08-30T00:01:25.445Z,58.22
2017-08-30T00:03:51.598Z,37.88
2017-08-30T00:06:17.769Z,52.00
2017-08-30T00:08:43.941Z,64.85
2017-08-30T00:11:10.109Z,53.97
2017-08-30T00:13:36.283Z,39.17
2017-08-30T00:16:02.454Z,47.25
2017-08-30T00:18:28.621Z,35.15
2017-08-30T00:20:54.788Z,45.88
2017-08-30T00:23:20.962Z,40.55
2017-08-30T00:25:47.123Z,32.75
2017-08-30T00:28:13.280Z,41.72
2017-08-30T00:30:39.440Z,37.40
2017-08-30T00:33:05.600Z,37.00
2017-08-30T00:35:31.769Z,37.30
2017-08-30T00:37:57.953Z,56.63
2017-08-30T00:40:24.111Z,36.78
2017-08-30T00:42:50.286Z,32.50
2017-08-30T00:45:16.456Z,31.23
2017-08-30T00:47:42.613Z,27.23
2017-08-30T00:50:08.786Z,51.17
2017-08-30T00:52:34.951Z,37.20
2017-08-30T00:55:01.103Z,42.10
2017-08-30T00:57:27.264Z,28.42
2017-08-30T00:59:53.449Z,29.65
2017-08-30T01:02:19.599Z,31.73
2017-08-30T01:04:45.762Z,22.95
2017-08-30T01:07:11.940Z,23.50
2017-08-30T01:09:38.120Z,28.55
2017-08-30T01:12:04.281Z,35.38
2017-08-30T01:14:30.460Z,26.85
2017-08-30T01:16:56.620Z,24.00
2017-08-30T01:19:22.800Z,30.37
2017-08-30T01:21:48.983Z,30.33
2017-08-30T01:24:15.150Z,23.83
2017-08-30T01:26:41.334Z,38.17
2017-08-30T01:29:07.491Z,63.63
2017-08-30T01:31:33.659Z,25.90
2017-08-30T01:33:59.836Z,39.75
2017-08-30T01:36:26.012Z,51.63
2017-08-30T01:38:52.194Z,26.10
2017-08-30T01:41:18.381Z,39.35
2017-08-30T01:43:44.545Z,53.47
2017-08-30T01:46:10.710Z,74.95
2017-08-30T01:48:36.893Z,72.10
2017-08-30T01:51:03.067Z,45.58
2017-08-30T01:53:29.241Z,46.20
2017-08-30T01:55:55.408Z,34.90
2017-08-30T01:58:21.561Z,35.25
2017-08-30T02:00:47.710Z,46.83
2017-08-30T02:03:13.864Z,53.08
2017-08-30T02:05:40.043Z,39.97
2017-08-30T02:08:06.209Z,40.50
2017-08-30T02:10:32.372Z,53.50
2017-08-30T02:12:58.528Z,27.95
2017-08-30T02:15:24.684Z,42.38
2017-08-30T02:17:50.852Z,32.00
2017-08-30T02:20:17.000Z,52.50
2017-08-30T02:22:43.145Z,31.98
2017-08-30T02:25:09.322Z,33.05
2017-08-30T02:27:35.491Z,29.30
2017-08-30T02:30:01.657Z,35.38
2017-08-30T02:32:27.834Z,33.97
2017-08-30T02:34:54.020Z,27.80
2017-08-30T02:37:20.176Z,20.40
2017-08-30T02:39:46.340Z,20.27
2017-08-30T02:42:12.490Z,23.55
2017-08-30T02:44:38.670Z,24.50
2017-08-30T02:47:04.841Z,22.90
2017-08-30T02:49:31.003Z,24.83
2017-08-30T02:51:57.166Z,22.70
2017-08-30T02:54:23.331Z,26.20
2017-08-30T02:56:49.497Z,29.45
2017-08-30T02:59:15.661Z,36.33
2017-08-30T03:01:41.819Z,29.65
2017-08-30T03:04:07.993Z,29.83
2017-08-30T03:06:34.149Z,21.48
2017-08-30T03:09:00.318Z,25.58
2017-08-30T03:11:26.488Z,26.50
2017-08-30T03:13:52.666Z,18.40
2017-08-30T03:16:18.832Z,18.40
2017-08-30T03:18:44.979Z,17.62
2017-08-30T03:21:11.131Z,19.00
2017-08-30T03:23:37.282Z,21.33
2017-08-30T03:26:03.448Z,18.55
2017-08-30T03:28:29.620Z,19.37
2017-08-30T03:30:55.794Z,17.17
2017-08-30T03:33:21.952Z,13.55
2017-08-30T03:35:48.128Z,12.88
2017-08-30T03:38:14.288Z,13.85
2017-08-30T03:40:40.462Z,12.98
2017-08-30T03:43:06.624Z,13.40
2017-08-30T03:45:32.784Z,11.65
2017-08-30T03:47:58.963Z,11.98
2017-08-30T03:50:25.143Z,11.45
2017-08-30T03:52:51.335Z,15.50
2017-08-30T03:55:17.506Z,15.43
2017-08-30T03:57:43.678Z,16.25
2017-08-30T04:00:10.911Z,12.95
2017-08-30T04:02:37.089Z,11.60
2017-08-30T04:05:03.234Z,11.12
2017-08-30T04:07:29.403Z,13.50
2017-08-30T04:09:55.567Z,13.85
2017-08-30T04:12:21.737Z,23.92
2017-08-30T04:14:48.841Z,34.72
2017-08-30T04:17:15.013Z,43.22
2017-08-30T04:19:41.174Z,21.12
2017-08-30T04:22:07.341Z,33.05
2017-08-30T04:24:33.519Z,41.05
2017-08-30T04:26:59.693Z,29.92
2017-08-30T04:29:25.867Z,36.63
2017-08-30T04:31:52.027Z,33.33
2017-08-30T04:34:18.219Z,15.25
2017-08-30T04:36:44.396Z,14.80
2017-08-30T04:39:10.565Z,28.10
2017-08-30T04:41:36.733Z,23.98
2017-08-30T04:44:02.900Z,14.98
2017-08-30T04:46:29.085Z,10.05
2017-08-30T04:48:55.256Z,7.82
2017-08-30T04:51:21.406Z,8.25
2017-08-30T04:53:47.569Z,8.90
2017-08-30T04:56:13.733Z,10.15
2017-08-30T04:58:39.888Z,9.40
2017-08-30T05:01:06.040Z,10.10
2017-08-30T05:03:32.195Z,9.10
2017-08-30T05:05:58.358Z,9.75
2017-08-30T05:08:24.540Z,10.80
2017-08-30T05:10:50.698Z,9.65
2017-08-30T05:13:16.860Z,12.68
2017-08-30T05:15:43.011Z,12.55
2017-08-30T05:18:09.200Z,11.73
2017-08-30T05:20:35.375Z,10.65
2017-08-30T05:23:01.541Z,10.00
2017-08-30T05:25:27.697Z,10.20
2017-08-30T05:27:53.865Z,11.05
2017-08-30T05:30:20.051Z,11.57
2017-08-30T05:32:46.198Z,10.10
2017-08-30T05:35:12.367Z,9.05
2017-08-30T05:37:38.533Z,9.50
2017-08-30T05:40:04.707Z,8.25
2017-08-30T05:42:30.864Z,9.32
2017-08-30T05:44:57.036Z,7.50
2017-08-30T05:47:23.192Z,7.78
2017-08-30T05:49:49.341Z,8.35
2017-08-30T05:52:15.498Z,8.15
2017-08-30T05:54:41.647Z,6.28
2017-08-30T05:57:07.805Z,6.72
2017-08-30T05:59:33.973Z,9.40
2017-08-30T06:02:00.134Z,8.75
2017-08-30T06:04:26.316Z,7.35
2017-08-30T06:06:52.482Z,8.10
2017-08-30T06:09:18.648Z,7.50
2017-08-30T06:11:44.811Z,7.22
2017-08-30T06:14:10.963Z,7.15
2017-08-30T06:16:37.126Z,7.20
2017-08-30T06:19:03.296Z,6.78
2017-08-30T06:21:29.446Z,5.60
2017-08-30T06:23:55.610Z,17.52
2017-08-30T06:26:21.772Z,5.80
2017-08-30T06:28:47.943Z,5.35
2017-08-30T06:31:14.094Z,5.73
2017-08-30T06:33:40.267Z,4.60
2017-08-30T06:36:06.444Z,4.70
2017-08-30T06:38:32.592Z,5.20
2017-08-30T06:40:58.738Z,5.33
2017-08-30T06:43:24.886Z,5.23
2017-08-30T06:45:51.055Z,5.60
2017-08-30T06:48:17.229Z,4.57
2017-08-30T06:50:43.467Z,5.10
2017-08-30T06:53:09.616Z,5.70
2017-08-30T06:55:35.789Z,5.27
2017-08-30T06:58:01.948Z,5.63
2017-08-30T07:00:28.104Z,4.90
2017-08-30T07:02:54.255Z,5.17
2017-08-30T07:05:20.419Z,5.53
2017-08-30T07:07:46.566Z,4.53
2017-08-30T07:10:12.729Z,5.40
2017-08-30T07:12:38.899Z,5.70
2017-08-30T07:15:05.053Z,5.80
2017-08-30T07:17:31.202Z,5.73
2017-08-30T07:19:57.359Z,5.60
2017-08-30T07:22:23.530Z,5.40
2017-08-30T07:24:49.684Z,5.47
2017-08-30T07:27:15.856Z,5.73
2017-08-30T07:29:42.012Z,6.73
2017-08-30T07:32:08.195Z,6.10
2017-08-30T07:34:34.362Z,6.47
2017-08-30T07:37:00.657Z,6.23
2017-08-30T07:39:26.819Z,6.10
2017-08-30T07:41:52.962Z,6.20
2017-08-30T07:44:19.147Z,6.17
2017-08-30T07:46:45.328Z,5.50
2017-08-30T07:49:11.528Z,5.57
2017-08-30T07:51:37.703Z,5.20
2017-08-30T07:54:03.867Z,5.93
2017-08-30T07:56:30.032Z,5.83
2017-08-30T07:58:56.210Z,5.70
2017-08-30T08:01:22.386Z,6.50
2017-08-30T08:03:48.538Z,5.10
2017-08-30T08:06:14.709Z,5.20
2017-08-30T08:08:40.883Z,4.83
2017-08-30T08:11:07.040Z,4.90
2017-08-30T08:13:33.211Z,4.87
2017-08-30T08:15:59.378Z,5.00
2017-08-30T08:18:25.548Z,5.23
2017-08-30T08:20:51.722Z,4.50
2017-08-30T08:23:17.871Z,5.53
2017-08-30T08:25:44.022Z,4.87
2017-08-30T08:28:10.189Z,5.20
2017-08-30T08:30:36.380Z,5.47
2017-08-30T08:33:02.540Z,4.93
2017-08-30T08:35:28.686Z,4.53
2017-08-30T08:37:54.860Z,5.00
2017-08-30T08:40:21.019Z,5.13
2017-08-30T08:42:47.168Z,4.87
2017-08-30T08:45:13.346Z,5.33
2017-08-30T08:47:39.532Z,5.30
2017-08-30T08:50:05.698Z,4.20
2017-08-30T08:52:31.859Z,4.60
2017-08-30T08:54:58.004Z,5.00
2017-08-30T08:57:24.155Z,4.40
2017-08-30T08:59:50.324Z,5.43
2017-08-30T09:02:16.573Z,4.83
2017-08-30T09:04:42.733Z,4.73
2017-08-30T09:07:08.909Z,4.83
2017-08-30T09:09:35.064Z,5.23
2017-08-30T09:12:01.239Z,5.03
2017-08-30T09:14:27.385Z,5.40
2017-08-30T09:16:53.550Z,5.23
2017-08-30T09:19:19.699Z,5.83
2017-08-30T09:21:45.877Z,5.13
2017-08-30T09:24:12.036Z,4.57
2017-08-30T09:26:38.213Z,4.30
2017-08-30T09:29:04.376Z,4.27
2017-08-30T09:31:30.546Z,4.30
2017-08-30T09:33:56.699Z,4.47
2017-08-30T09:36:22.864Z,4.37
2017-08-30T09:38:49.051Z,5.00
2017-08-30T09:41:15.203Z,4.50
2017-08-30T09:43:41.365Z,4.90
2017-08-30T09:46:07.523Z,4.30
2017-08-30T09:48:33.687Z,4.40
2017-08-30T09:50:59.866Z,4.63
2017-08-30T09:53:26.012Z,4.40
2017-08-30T09:55:52.179Z,4.70
2017-08-30T09:58:18.392Z,4.33
2017-08-30T10:00:44.542Z,3.70
2017-08-30T10:03:10.723Z,4.73
2017-08-30T10:05:36.914Z,4.00
2017-08-30T10:08:03.073Z,4.20
2017-08-30T10:10:29.230Z,5.10
2017-08-30T10:12:55.407Z,4.13
2017-08-30T10:15:21.587Z,4.43
2017-08-30T10:17:47.745Z,3.93
2017-08-30T10:20:13.893Z,4.40
2017-08-30T10:22:40.057Z,4.10
2017-08-30T10:25:06.216Z,3.70
2017-08-30T10:27:32.390Z,4.60
2017-08-30T10:29:58.549Z,4.50
2017-08-30T10:32:24.718Z,4.63
2017-08-30T10:34:50.878Z,4.40
2017-08-30T10:37:17.044Z,4.73
2017-08-30T10:39:43.218Z,4.60
2017-08-30T10:42:09.381Z,4.30
2017-08-30T10:44:35.545Z,3.73
2017-08-30T10:47:01.705Z,4.73
2017-08-30T10:49:27.859Z,4.10
2017-08-30T10:51:54.020Z,4.80
2017-08-30T10:54:20.195Z,4.40
2017-08-30T10:56:46.366Z,4.87
2017-08-30T10:59:12.535Z,4.50
2017-08-30T11:01:38.686Z,4.60
2017-08-30T11:04:04.838Z,4.80
2017-08-30T11:06:30.983Z,4.40
2017-08-30T11:08:57.139Z,5.10
2017-08-30T11:11:23.297Z,5.97
2017-08-30T11:13:49.456Z,5.20
2017-08-30T11:16:15.617Z,4.30
2017-08-30T11:18:41.788Z,4.70
2017-08-30T11:21:07.951Z,4.83
2017-08-30T11:23:38.052Z,4.33
2017-08-30T11:26:04.224Z,4.03
2017-08-30T11:28:30.391Z,4.27
2017-08-30T11:30:56.556Z,4.07
2017-08-30T11:33:22.728Z,4.27
2017-08-30T11:35:48.898Z,3.83
2017-08-30T11:38:15.062Z,4.97
2017-08-30T11:40:41.229Z,4.53
2017-08-30T11:43:07.393Z,4.73
2017-08-30T11:45:33.549Z,5.07
2017-08-30T11:47:59.706Z,4.43
2017-08-30T11:50:25.876Z,4.30
2017-08-30T11:52:52.045Z,5.20
2017-08-30T11:55:18.210Z,4.67
2017-08-30T11:57:44.371Z,5.17
2017-08-30T12:00:10.552Z,4.70
2017-08-30T12:02:36.711Z,4.10
2017-08-30T12:05:02.877Z,5.30
2017-08-30T12:07:29.040Z,4.53
2017-08-30T12:09:55.207Z,4.03
2017-08-30T12:12:21.364Z,4.33
2017-08-30T12:14:47.547Z,4.50
2017-08-30T12:17:13.711Z,4.40
2017-08-30T12:19:39.869Z,4.30
2017-08-30T12:22:06.028Z,4.67
2017-08-30T12:24:32.190Z,4.17
2017-08-30T12:26:58.410Z,4.20
2017-08-30T12:29:24.563Z,4.10
2017-08-30T12:31:50.714Z,4.50
2017-08-30T12:34:16.877Z,3.73
2017-08-30T12:36:43.021Z,4.40
2017-08-30T12:39:09.178Z,4.30
2017-08-30T12:41:35.352Z,4.20
2017-08-30T12:44:01.541Z,3.70
2017-08-30T12:46:27.704Z,4.40
2017-08-30T12:48:53.877Z,3.73
2017-08-30T12:51:20.048Z,3.67
2017-08-30T12:53:46.213Z,4.20
2017-08-30T12:56:12.382Z,4.33
2017-08-30T12:58:38.539Z,3.80
2017-08-30T13:01:04.698Z,4.10
2017-08-30T13:03:30.896Z,4.30
2017-08-30T13:05:57.059Z,3.90
2017-08-30T13:08:23.216Z,4.13
2017-08-30T13:10:49.401Z,3.70
2017-08-30T13:13:15.586Z,3.73
2017-08-30T13:15:41.747Z,4.30
2017-08-30T13:18:07.902Z,4.87
2017-08-30T13:20:34.076Z,4.27
2017-08-30T13:23:00.237Z,4.73
2017-08-30T13:25:26.448Z,4.47
2017-08-30T13:27:52.608Z,4.77
2017-08-30T13:30:18.774Z,4.27
2017-08-30T13:32:44.971Z,4.60
2017-08-30T13:35:11.147Z,4.73
2017-08-30T13:37:37.295Z,4.90
2017-08-30T13:40:03.455Z,4.80
2017-08-30T13:42:29.598Z,5.70
2017-08-30T13:44:55.763Z,4.87
2017-08-30T13:47:21.939Z,5.33
2017-08-30T13:49:48.119Z,4.13
2017-08-30T13:52:14.275Z,4.10
2017-08-30T13:54:40.455Z,4.00
2017-08-30T13:57:06.626Z,5.00
2017-08-30T13:59:32.796Z,4.67
2017-08-30T14:01:58.964Z,4.23
2017-08-30T14:04:25.132Z,4.93
2017-08-30T14:06:51.328Z,4.00
2017-08-30T14:09:17.523Z,4.37
2017-08-30T14:11:43.696Z,4.40
2017-08-30T14:14:09.857Z,6.13
2017-08-30T14:16:36.024Z,5.37
2017-08-30T14:19:02.183Z,10.07
2017-08-30T14:21:28.352Z,97.23
2017-08-30T14:23:54.535Z,84.43
2017-08-30T14:26:20.738Z,25.73
2017-08-30T14:28:46.901Z,33.23
2017-08-30T14:31:13.053Z,49.00
2017-08-30T14:33:39.231Z,8.40
2017-08-30T14:36:05.407Z,42.37
2017-08-30T14:38:31.562Z,25.80
2017-08-30T14:40:57.731Z,9.90
2017-08-30T14:43:23.900Z,14.50
2017-08-30T14:45:50.070Z,6.60
2017-08-30T14:48:16.210Z,8.43
2017-08-30T14:50:42.382Z,4.30
2017-08-30T14:53:08.546Z,6.30
2017-08-30T14:55:34.740Z,7.37
2017-08-30T14:58:00.921Z,7.73
2017-08-30T15:00:27.083Z,6.07
2017-08-30T15:02:53.261Z,5.27
2017-08-30T15:05:19.439Z,5.50
2017-08-30T15:07:45.610Z,4.77
2017-08-30T15:10:11.763Z,4.97
2017-08-30T15:12:37.943Z,4.60
2017-08-30T15:15:04.127Z,5.20
2017-08-30T15:17:30.308Z,4.43
2017-08-30T15:19:56.487Z,5.10
2017-08-30T15:22:22.664Z,6.00
2017-08-30T15:24:48.834Z,5.97
2017-08-30T15:27:15.001Z,4.00
2017-08-30T15:29:41.161Z,5.03
2017-08-30T15:32:07.324Z,5.20
2017-08-30T15:34:33.490Z,5.00
2017-08-30T15:36:59.673Z,4.77
2017-08-30T15:39:25.851Z,5.27
2017-08-30T15:41:52.036Z,5.20
2017-08-30T15:44:18.210Z,6.30
2017-08-30T15:46:44.387Z,5.50
2017-08-30T15:49:10.562Z,6.20
2017-08-30T15:51:36.725Z,5.87
2017-08-30T15:54:02.881Z,6.43
2017-08-30T15:56:29.031Z,6.37
2017-08-30T15:58:55.214Z,5.43
2017-08-30T16:01:21.383Z,12.03
2017-08-30T16:03:47.596Z,6.73
2017-08-30T16:06:13.775Z,7.57
2017-08-30T16:08:39.946Z,6.17
2017-08-30T16:11:06.146Z,4.93
2017-08-30T16:13:32.323Z,6.73
2017-08-30T16:15:58.499Z,6.83
2017-08-30T16:18:24.672Z,5.80
2017-08-30T16:20:50.831Z,7.20
2017-08-30T16:23:16.986Z,8.27
2017-08-30T16:25:43.158Z,5.57
2017-08-30T16:28:09.324Z,5.47
2017-08-30T16:30:35.504Z,4.97
2017-08-30T16:33:01.676Z,5.17
2017-08-30T16:35:27.837Z,5.50
2017-08-30T16:37:53.992Z,6.13
2017-08-30T16:40:20.169Z,6.80
2017-08-30T16:42:46.342Z,5.90
2017-08-30T16:45:12.514Z,6.10
2017-08-30T16:47:38.678Z,7.30
2017-08-30T16:50:04.849Z,7.07
2017-08-30T16:52:31.028Z,8.13
2017-08-30T16:54:57.206Z,6.97
2017-08-30T16:57:23.440Z,7.37
2017-08-30T16:59:52.032Z,6.00
2017-08-30T17:02:19.232Z,6.78
2017-08-30T17:04:47.119Z,6.60
2017-08-30T17:07:13.382Z,6.03
2017-08-30T17:09:39.543Z,8.73
2017-08-30T17:12:05.729Z,7.37
2017-08-30T17:14:31.915Z,7.55
2017-08-30T17:16:58.084Z,8.02
2017-08-30T17:19:24.242Z,6.82
2017-08-30T17:21:50.403Z,7.28
2017-08-30T17:24:16.585Z,7.35
2017-08-30T17:26:42.759Z,7.68
2017-08-30T17:29:08.925Z,8.27
2017-08-30T17:31:35.089Z,6.82
2017-08-30T17:34:01.252Z,6.12
2017-08-30T17:36:27.422Z,6.60
2017-08-30T17:38:53.605Z,6.00
2017-08-30T17:41:19.768Z,7.80
2017-08-30T17:43:45.946Z,7.22
2017-08-30T17:46:12.138Z,7.95
2017-08-30T17:48:38.349Z,7.50
2017-08-30T17:51:04.513Z,7.50
2017-08-30T17:53:30.680Z,7.82
2017-08-30T17:55:56.844Z,7.50
2017-08-30T17:58:23.016Z,8.10
2017-08-30T18:00:49.185Z,8.15
2017-08-30T18:03:15.363Z,8.70
2017-08-30T18:05:41.527Z,7.50
2017-08-30T18:08:07.716Z,6.75
2017-08-30T18:10:33.883Z,7.90
2017-08-30T18:13:00.061Z,8.27
2017-08-30T18:15:26.218Z,8.30
2017-08-30T18:17:52.395Z,8.45
2017-08-30T18:20:18.590Z,8.02
2017-08-30T18:22:44.775Z,7.60
2017-08-30T18:25:10.949Z,9.75
2017-08-30T18:27:37.122Z,9.93
2017-08-30T18:30:03.311Z,8.18
2017-08-30T18:32:29.478Z,8.98
2017-08-30T18:34:55.650Z,9.23
2017-08-30T18:37:21.838Z,8.02
2017-08-30T18:39:48.014Z,9.25
2017-08-30T18:42:14.201Z,8.90
2017-08-30T18:44:40.374Z,8.35
2017-08-30T18:47:06.592Z,7.05
2017-08-30T18:49:32.762Z,6.90
2017-08-30T18:51:58.942Z,7.05
2017-08-30T18:54:25.118Z,8.98
2017-08-30T18:56:51.288Z,8.35
2017-08-30T18:59:17.441Z,8.57
2017-08-30T19:01:43.618Z,8.18
2017-08-30T19:04:09.813Z,9.10
2017-08-30T19:06:35.989Z,8.20
2017-08-30T19:09:02.142Z,8.38
2017-08-30T19:11:28.303Z,8.43
2017-08-30T19:13:54.489Z,8.32
2017-08-30T19:16:20.673Z,8.07
2017-08-30T19:18:47.057Z,8.35
2017-08-30T19:21:13.218Z,8.43
2017-08-30T19:23:39.380Z,8.15
2017-08-30T19:26:05.535Z,8.40
2017-08-30T19:28:31.687Z,9.50
2017-08-30T19:30:57.861Z,9.32
2017-08-30T19:33:24.039Z,8.45
2017-08-30T19:35:50.203Z,7.93
2017-08-30T19:38:16.357Z,8.30
2017-08-30T19:40:42.669Z,8.93
2017-08-30T19:43:08.849Z,10.30
2017-08-30T19:45:35.013Z,8.88
2017-08-30T19:48:01.171Z,9.15
2017-08-30T19:50:27.332Z,11.38
2017-08-30T19:52:53.508Z,9.70
2017-08-30T19:55:19.682Z,8.02
2017-08-30T19:57:45.839Z,12.57
2017-08-30T20:00:12.014Z,9.18
2017-08-30T20:02:38.166Z,8.77
2017-08-30T20:05:04.341Z,9.10
2017-08-30T20:07:30.516Z,10.80
2017-08-30T20:09:56.681Z,10.27
2017-08-30T20:12:22.836Z,8.93
2017-08-30T20:14:48.992Z,9.45
2017-08-30T20:17:15.165Z,8.65
2017-08-30T20:19:41.330Z,9.32
2017-08-30T20:22:07.483Z,8.48
2017-08-30T20:24:33.655Z,9.32
2017-08-30T20:26:59.829Z,8.20
2017-08-30T20:29:26.015Z,9.80
2017-08-30T20:31:52.178Z,9.90
2017-08-30T20:34:18.363Z,8.30
2017-08-30T20:36:44.547Z,9.40
2017-08-30T20:39:10.706Z,10.20
2017-08-30T20:41:36.889Z,10.52
2017-08-30T20:44:03.070Z,9.98
2017-08-30T20:46:29.257Z,11.75
2017-08-30T20:48:55.438Z,10.73
2017-08-30T20:51:21.615Z,8.88
2017-08-30T20:53:47.880Z,11.73
2017-08-30T20:56:14.115Z,10.50
2017-08-30T20:58:40.318Z,10.48
2017-08-30T21:01:06.543Z,10.77
2017-08-30T21:03:32.806Z,11.12
2017-08-30T21:05:59.016Z,11.10
2017-08-30T21:08:25.254Z,10.98
2017-08-30T21:10:51.468Z,11.15
2017-08-30T21:13:17.739Z,10.52
2017-08-30T21:15:43.925Z,9.45
2017-08-30T21:18:10.187Z,8.82
2017-08-30T21:20:36.441Z,9.27
2017-08-30T21:23:02.641Z,10.13
2017-08-30T21:25:28.865Z,10.45
2017-08-30T21:27:55.098Z,11.48
2017-08-30T21:30:21.320Z,10.60
2017-08-30T21:32:47.562Z,9.65
2017-08-30T21:35:13.788Z,10.27
2017-08-30T21:37:40.013Z,10.52
2017-08-30T21:40:06.245Z,9.80
2017-08-30T21:42:32.471Z,12.50
2017-08-30T21:44:58.740Z,10.90
2017-08-30T21:47:24.931Z,11.70
2017-08-30T21:49:51.156Z,10.18
2017-08-30T21:52:17.400Z,11.35
2017-08-30T21:54:43.630Z,11.50
2017-08-30T21:57:09.815Z,13.30
2017-08-30T21:59:36.104Z,12.30
2017-08-30T22:02:02.324Z,11.45
2017-08-30T22:04:28.522Z,11.05
2017-08-30T22:06:54.760Z,11.95
2017-08-30T22:09:21.000Z,12.57
2017-08-30T22:11:47.226Z,12.35
2017-08-30T22:14:13.479Z,14.70
2017-08-30T22:16:39.688Z,13.00
2017-08-30T22:19:05.918Z,12.30
2017-08-30T22:21:32.131Z,12.13
2017-08-30T22:23:58.302Z,12.00
2017-08-30T22:26:24.514Z,12.75
2017-08-30T22:28:50.725Z,12.25
2017-08-30T22:31:16.982Z,12.40
2017-08-30T22:33:43.203Z,11.57
2017-08-30T22:36:09.428Z,13.10
2017-08-30T22:38:35.630Z,12.73
2017-08-30T22:41:01.867Z,12.77
2017-08-30T22:43:28.103Z,11.98
2017-08-30T22:45:54.341Z,12.35
2017-08-30T22:48:20.575Z,12.48
2017-08-30T22:50:46.792Z,14.25
2017-08-30T22:53:13.020Z,14.52
2017-08-30T22:55:39.269Z,13.85
2017-08-30T22:58:05.506Z,11.45
2017-08-30T23:00:31.781Z,13.25
2017-08-30T23:02:58.065Z,13.95
2017-08-30T23:05:24.291Z,14.65
2017-08-30T23:07:50.511Z,13.95
2017-08-30T23:10:16.742Z,12.60
2017-08-30T23:12:42.973Z,12.07
2017-08-30T23:15:09.193Z,13.18
2017-08-30T23:17:35.417Z,11.57
2017-08-30T23:20:01.655Z,12.50
2017-08-30T23:22:27.887Z,10.85
2017-08-30T23:24:54.119Z,12.37
2017-08-30T23:27:20.547Z,11.07
2017-08-30T23:29:46.816Z,10.43
2017-08-30T23:32:13.004Z,11.07
2017-08-30T23:34:39.255Z,11.73
2017-08-30T23:37:05.459Z,12.20
2017-08-30T23:39:31.689Z,11.48
2017-08-30T23:41:57.924Z,11.57
2017-08-30T23:44:24.143Z,11.85
2017-08-30T23:46:50.389Z,13.07
2017-08-30T23:49:16.617Z,12.05
2017-08-30T23:51:42.842Z,11.30
2017-08-30T23:54:09.067Z,10.70
2017-08-30T23:56:35.296Z,11.52
2017-08-30T23:59:01.575Z,10.85
